Pilot Knob, Illinois
Current Conditions -  °F | °C
As of 3:35 PM on Monday 24 Nov 2014 (Local Time) from KSAR Reporting Station
Broken Clouds Broken Clouds  
Wind Chill: 39°   Ceiling: 5500
Heat Index: 43°   Visibility: 10mi
Dew Point: 31°   Wind: 8mph
Humidity: 62%   Direction: 290°WNW
Pressure: 29.82"   Gusts: NA
Location:  38.318°N, 89.3879°W
Report Text: KSAR 242135Z AUTO 29007KT 10SM BKN055 06/00 A2982 RMK AO2 T00631005
Loading
Personal Weather Stations






























Interactive Weather Map New forecast layout! Learn more

10-Day Weather Forecast

Advertisements
Track Severe Weather on mobile